Time;durP1;ratioP1;P1;durP2;ratioP2;P2;SDS_P1;SDS_P2;PMS_P1;PMS_P2;Temp;Humidity;BMP_temperature;BMP_pressure;BME280_temperature;BME280_humidity;BME280_pressure;Samples;Min_cycle;Max_cycle;Signal;HPM_P1;HPM_P2
2022/06/09 00:00:36;;;;;;;1.50;0.57;;;16.00;99.90;;;;;;4971901;28;20031;-76
2022/06/09 00:03:08;;;;;;;1.20;0.70;;;16.00;99.90;;;;;;4962348;28;20411;-76
2022/06/09 00:05:33;;;;;;;0.70;0.50;;;15.90;99.90;;;;;;4981756;28;20085;-75
2022/06/09 00:08:04;;;;;;;1.83;0.60;;;16.00;99.90;;;;;;4967270;28;20436;-75
2022/06/09 00:10:34;;;;;;;2.92;0.50;;;15.90;99.90;;;;;;4963574;28;20027;-74
2022/06/09 00:13:04;;;;;;;1.63;0.60;;;15.90;99.90;;;;;;4960576;28;20034;-75
2022/06/09 00:15:29;;;;;;;1.00;0.55;;;16.00;99.90;;;;;;4964696;28;20476;-77
2022/06/09 00:17:58;;;;;;;1.95;0.50;;;16.00;99.90;;;;;;4967310;28;20041;-76
2022/06/09 00:20:24;;;;;;;1.40;0.60;;;16.00;99.90;;;;;;4971435;28;20038;-76
2022/06/09 00:22:52;;;;;;;0.70;0.50;;;16.00;99.90;;;;;;4967548;28;20023;-76
2022/06/09 00:25:21;;;;;;;1.25;0.70;;;15.90;99.90;;;;;;4988553;28;20080;-77
2022/06/09 00:27:49;;;;;;;1.10;0.57;;;15.90;99.90;;;;;;4967904;28;20488;-76
2022/06/09 00:30:16;;;;;;;1.02;0.70;;;15.90;99.90;;;;;;4970737;28;20088;-76
2022/06/09 00:32:43;;;;;;;1.67;0.50;;;15.90;99.90;;;;;;4966965;28;20531;-75
2022/06/09 00:35:09;;;;;;;0.60;0.43;;;15.90;99.90;;;;;;4970287;28;20105;-75
2022/06/09 00:37:35;;;;;;;1.05;0.40;;;15.80;99.90;;;;;;4967733;28;20114;-76
2022/06/09 00:40:02;;;;;;;1.40;0.30;;;15.90;99.90;;;;;;4964668;28;20117;-75
2022/06/09 00:42:35;;;;;;;0.77;0.60;;;15.90;99.90;;;;;;4971641;28;20053;-74
2022/06/09 00:45:26;;;;;;;1.33;0.40;;;15.90;99.90;;;;;;4969847;28;20046;-75
2022/06/09 00:47:58;;;;;;;0.85;0.50;;;15.90;99.90;;;;;;4947348;28;20039;-74
2022/06/09 00:50:27;;;;;;;2.05;0.55;;;15.90;99.90;;;;;;4971317;28;20023;-75
2022/06/09 00:52:58;;;;;;;0.75;0.50;;;15.90;99.90;;;;;;4971408;28;20038;-75
2022/06/09 00:55:26;;;;;;;1.85;0.52;;;15.90;99.90;;;;;;4965553;28;20471;-75
2022/06/09 00:58:15;;;;;;;1.00;0.70;;;15.80;99.90;;;;;;4968567;28;20034;-75
2022/06/09 01:01:01;;;;;;;1.10;0.57;;;15.90;99.90;;;;;;4967822;28;20034;-73
2022/06/09 01:03:36;;;;;;;2.38;0.52;;;15.80;99.90;;;;;;4966335;28;20022;-75
2022/06/09 01:06:14;;;;;;;1.13;0.50;;;15.80;99.90;;;;;;4966237;28;20054;-75
2022/06/09 01:08:54;;;;;;;1.85;0.50;;;15.80;99.90;;;;;;4967159;28;20037;-74
2022/06/09 01:11:24;;;;;;;1.40;0.55;;;15.80;99.90;;;;;;4966844;28;20387;-74
2022/06/09 01:13:50;;;;;;;2.03;1.00;;;15.80;99.90;;;;;;4966590;28;20035;-74
2022/06/09 01:16:49;;;;;;;2.22;0.85;;;15.70;99.90;;;;;;4968102;28;20034;-74
2022/06/09 01:19:22;;;;;;;3.08;1.00;;;15.70;99.90;;;;;;4963744;28;20526;-73
2022/06/09 01:22:25;;;;;;;2.08;0.77;;;15.70;99.90;;;;;;4964803;28;20491;-74
2022/06/09 01:25:09;;;;;;;4.45;0.70;;;15.70;99.90;;;;;;4980788;28;20033;-75
2022/06/09 01:28:26;;;;;;;1.73;0.70;;;15.60;99.90;;;;;;4967803;28;20078;-75
2022/06/09 01:31:04;;;;;;;1.58;0.50;;;15.60;99.90;;;;;;4962543;28;20049;-74
2022/06/09 01:33:52;;;;;;;3.33;0.80;;;15.60;99.90;;;;;;4968083;28;20030;-75
2022/06/09 01:36:44;;;;;;;4.13;0.70;;;15.50;99.90;;;;;;4967459;28;20042;-75
2022/06/09 01:39:13;;;;;;;3.80;0.93;;;15.50;99.90;;;;;;4970018;28;20180;-74
2022/06/09 01:41:47;;;;;;;1.25;0.70;;;15.40;99.90;;;;;;4967125;28;20395;-74
2022/06/09 01:44:22;;;;;;;1.88;0.68;;;15.40;99.90;;;;;;4964450;28;20035;-75
2022/06/09 01:46:58;;;;;;;1.45;0.70;;;15.40;99.90;;;;;;4967978;28;20031;-75
2022/06/09 01:49:29;;;;;;;2.15;0.70;;;15.40;99.90;;;;;;4964387;28;20035;-76
2022/06/09 01:51:56;;;;;;;0.63;0.47;;;15.30;99.90;;;;;;4971578;28;20036;-76
2022/06/09 01:54:28;;;;;;;3.90;0.75;;;15.30;99.90;;;;;;4972511;28;20492;-76
2022/06/09 01:57:03;;;;;;;1.55;0.50;;;15.30;99.90;;;;;;4966797;28;20030;-76
2022/06/09 01:59:36;;;;;;;2.55;0.68;;;15.20;99.90;;;;;;4983132;28;20082;-75
2022/06/09 02:02:19;;;;;;;3.83;0.70;;;15.30;99.90;;;;;;4957213;28;20713;-76
2022/06/09 02:05:07;;;;;;;1.20;0.65;;;15.20;99.90;;;;;;4982493;28;20090;-75
2022/06/09 02:07:36;;;;;;;0.95;0.60;;;15.20;99.90;;;;;;4970513;28;20042;-75
2022/06/09 02:10:21;;;;;;;1.20;0.60;;;15.20;99.90;;;;;;4968375;28;20611;-75
2022/06/09 02:12:49;;;;;;;1.92;0.70;;;15.20;99.90;;;;;;4974886;28;20379;-75
2022/06/09 02:15:23;;;;;;;0.70;0.40;;;15.10;99.90;;;;;;4970424;28;20062;-76
2022/06/09 02:17:52;;;;;;;0.45;0.40;;;15.10;99.90;;;;;;4969526;28;20057;-75
2022/06/09 02:20:23;;;;;;;1.10;0.57;;;15.00;99.90;;;;;;4968131;28;20031;-75
2022/06/09 02:22:49;;;;;;;2.15;0.50;;;15.00;99.90;;;;;;4970968;28;20388;-75
2022/06/09 02:25:18;;;;;;;0.98;0.63;;;15.00;99.90;;;;;;4966097;28;20023;-75
2022/06/09 02:27:44;;;;;;;0.75;0.55;;;14.90;99.90;;;;;;4967093;28;20140;-75
2022/06/09 02:30:10;;;;;;;1.02;0.57;;;14.90;99.90;;;;;;4959310;28;20476;-75
2022/06/09 02:32:35;;;;;;;4.55;0.80;;;14.90;99.90;;;;;;4968526;28;20031;-75
2022/06/09 02:35:02;;;;;;;1.02;0.45;;;14.90;99.90;;;;;;4971515;28;20089;-75
2022/06/09 02:37:28;;;;;;;0.40;0.40;;;15.00;99.90;;;;;;4970997;28;20058;-75
2022/06/09 02:39:53;;;;;;;3.47;0.93;;;15.00;99.90;;;;;;4965850;28;20030;-75
2022/06/09 02:42:19;;;;;;;0.68;0.30;;;14.90;99.90;;;;;;4964236;28;20085;-74
2022/06/09 02:44:44;;;;;;;1.23;0.50;;;14.90;99.90;;;;;;4966809;28;20478;-74
2022/06/09 02:47:13;;;;;;;3.05;0.60;;;14.90;99.90;;;;;;4968599;28;20030;-75
2022/06/09 02:49:44;;;;;;;0.85;0.60;;;15.00;99.90;;;;;;4971207;28;20038;-76
2022/06/09 02:52:09;;;;;;;0.90;0.40;;;14.90;99.90;;;;;;4971027;28;20392;-76
2022/06/09 02:54:38;;;;;;;0.75;0.52;;;14.90;99.90;;;;;;4971116;28;20114;-76
2022/06/09 02:57:07;;;;;;;1.30;0.80;;;14.90;99.90;;;;;;4969560;28;20031;-76
2022/06/09 02:59:38;;;;;;;0.60;0.50;;;14.80;99.90;;;;;;4965909;28;20082;-75
2022/06/09 03:02:04;;;;;;;1.13;0.43;;;14.80;99.90;;;;;;4970559;28;20034;-74
2022/06/09 03:04:33;;;;;;;2.13;0.60;;;14.80;99.90;;;;;;4970435;28;20028;-74
2022/06/09 03:07:05;;;;;;;0.95;0.70;;;14.70;99.90;;;;;;4966324;28;20062;-76
2022/06/09 03:09:36;;;;;;;1.48;0.70;;;14.70;99.90;;;;;;4971649;28;20035;-76
2022/06/09 03:12:06;;;;;;;0.80;0.50;;;14.60;99.90;;;;;;4968373;28;20061;-75
2022/06/09 03:14:33;;;;;;;0.45;0.40;;;14.50;99.90;;;;;;4970811;28;20022;-75
2022/06/09 03:16:59;;;;;;;1.25;0.68;;;14.60;99.90;;;;;;4970829;28;20027;-75
2022/06/09 03:19:24;;;;;;;2.03;0.50;;;14.60;99.90;;;;;;4962495;28;20743;-74
2022/06/09 03:21:53;;;;;;;2.05;0.70;;;14.60;99.90;;;;;;4968602;28;20106;-76
2022/06/09 03:24:28;;;;;;;1.98;0.50;;;14.60;99.90;;;;;;4970003;28;20121;-74
2022/06/09 03:26:54;;;;;;;0.82;0.65;;;14.60;99.90;;;;;;4966377;28;20034;-75
2022/06/09 03:29:20;;;;;;;0.98;0.50;;;14.60;99.90;;;;;;4965464;28;20027;-76
2022/06/09 03:31:46;;;;;;;1.30;0.63;;;14.70;99.90;;;;;;4968418;28;20026;-74
2022/06/09 03:34:15;;;;;;;0.93;0.55;;;14.70;99.90;;;;;;4967505;28;20062;-75
2022/06/09 03:36:43;;;;;;;1.10;0.60;;;14.60;99.90;;;;;;4967095;28;20105;-74
2022/06/09 03:39:10;;;;;;;1.30;0.57;;;14.60;99.90;;;;;;4983146;28;20039;-75
2022/06/09 03:41:38;;;;;;;1.45;0.45;;;14.60;99.90;;;;;;4972855;28;20046;-74
2022/06/09 03:44:07;;;;;;;1.60;0.50;;;14.70;99.90;;;;;;4971049;28;20024;-75
2022/06/09 03:46:36;;;;;;;0.43;0.40;;;14.60;99.90;;;;;;4967629;28;20444;-75
2022/06/09 03:49:02;;;;;;;3.20;0.60;;;14.60;99.90;;;;;;4978486;28;20042;-75
2022/06/09 03:51:30;;;;;;;1.73;0.80;;;14.60;99.90;;;;;;4964077;28;20034;-74
2022/06/09 03:53:59;;;;;;;1.50;0.80;;;14.60;99.90;;;;;;4964398;28;20472;-74
2022/06/09 03:56:24;;;;;;;4.13;0.85;;;14.60;99.90;;;;;;4968168;28;20050;-76
2022/06/09 03:58:50;;;;;;;2.47;0.70;;;14.60;99.90;;;;;;4967207;28;20027;-74
2022/06/09 04:01:17;;;;;;;2.05;0.55;;;14.60;99.90;;;;;;4958969;28;20053;-76
2022/06/09 04:03:52;;;;;;;1.65;1.13;;;14.60;99.90;;;;;;4966309;28;20483;-74
2022/06/09 04:06:21;;;;;;;1.85;0.77;;;14.60;99.90;;;;;;4969562;28;20088;-74
2022/06/09 04:08:56;;;;;;;3.08;1.35;;;14.60;99.90;;;;;;4966009;28;20063;-75
2022/06/09 04:11:23;;;;;;;2.53;1.00;;;14.60;99.90;;;;;;4978374;28;20030;-75
2022/06/09 04:13:52;;;;;;;1.77;0.88;;;14.60;99.90;;;;;;4968958;28;20077;-75
2022/06/09 04:16:23;;;;;;;1.77;0.70;;;14.60;99.90;;;;;;4967971;28;20030;-74
2022/06/09 04:18:50;;;;;;;2.13;0.95;;;14.70;99.90;;;;;;4967456;28;20030;-75
2022/06/09 04:21:16;;;;;;;1.73;0.95;;;14.70;99.90;;;;;;4967140;28;20033;-75
2022/06/09 04:23:42;;;;;;;3.30;0.63;;;14.70;99.90;;;;;;4968021;28;20404;-75
2022/06/09 04:26:15;;;;;;;1.33;0.73;;;14.70;99.90;;;;;;4969472;28;20057;-75
2022/06/09 04:28:46;;;;;;;3.53;0.80;;;14.80;99.90;;;;;;4961191;28;20098;-75
2022/06/09 04:31:12;;;;;;;4.43;0.85;;;14.70;99.90;;;;;;4976401;28;20023;-75
2022/06/09 04:33:39;;;;;;;5.05;0.98;;;14.70;99.90;;;;;;4965887;28;20652;-75
2022/06/09 04:36:12;;;;;;;1.95;0.80;;;14.70;99.90;;;;;;4961210;28;20536;-76
2022/06/09 04:38:38;;;;;;;2.30;0.93;;;14.70;99.90;;;;;;4956097;28;20023;-76
2022/06/09 04:41:09;;;;;;;0.90;0.70;;;14.70;99.90;;;;;;4968916;28;20615;-74
2022/06/09 04:43:46;;;;;;;3.20;0.88;;;14.70;99.90;;;;;;4964493;28;20098;-75
2022/06/09 04:46:18;;;;;;;2.13;1.05;;;14.70;99.90;;;;;;4961368;28;20031;-75
2022/06/09 04:48:47;;;;;;;2.63;1.30;;;14.70;99.90;;;;;;4959151;28;20034;-75
2022/06/09 04:51:16;;;;;;;1.77;1.10;;;14.70;99.90;;;;;;4955473;28;20395;-75
2022/06/09 04:53:42;;;;;;;2.72;0.88;;;14.70;99.90;;;;;;4953386;28;20530;-74
2022/06/09 04:56:09;;;;;;;1.85;0.82;;;14.70;99.90;;;;;;4965390;28;20081;-74
2022/06/09 04:58:38;;;;;;;1.70;0.75;;;14.70;99.90;;;;;;4966363;28;20110;-75
2022/06/09 05:01:04;;;;;;;3.38;1.08;;;14.70;99.90;;;;;;4962711;28;20069;-75
2022/06/09 05:03:32;;;;;;;3.45;0.90;;;14.70;99.90;;;;;;4959707;28;20070;-76
2022/06/09 05:05:58;;;;;;;4.80;1.23;;;14.70;99.90;;;;;;4968633;28;20534;-76
2022/06/09 05:08:24;;;;;;;2.50;0.90;;;14.70;99.90;;;;;;4957807;28;20026;-75
2022/06/09 05:10:50;;;;;;;3.67;1.17;;;14.70;99.90;;;;;;4967476;28;20042;-77
2022/06/09 05:13:19;;;;;;;2.75;1.10;;;14.70;99.90;;;;;;4966893;28;20141;-77
2022/06/09 05:15:53;;;;;;;2.20;1.00;;;14.70;99.90;;;;;;4966485;28;20515;-76
2022/06/09 05:18:21;;;;;;;3.50;0.90;;;14.70;99.90;;;;;;4961112;28;20034;-77
2022/06/09 05:20:49;;;;;;;2.47;1.02;;;14.70;99.90;;;;;;4964309;28;20041;-77
2022/06/09 05:23:14;;;;;;;1.52;0.90;;;14.70;99.90;;;;;;5004627;23;20498;-75
2022/06/09 05:25:40;;;;;;;2.63;1.20;;;14.80;99.90;;;;;;4994850;28;20030;-75
2022/06/09 05:28:06;;;;;;;2.65;0.95;;;14.80;99.90;;;;;;4997991;28;20030;-74
2022/06/09 05:30:32;;;;;;;3.40;1.00;;;14.90;99.90;;;;;;4995780;28;20068;-74
2022/06/09 05:32:58;;;;;;;2.70;1.10;;;14.90;99.90;;;;;;4998438;28;20046;-74
2022/06/09 05:35:24;;;;;;;3.95;1.13;;;15.00;99.90;;;;;;4991030;28;20552;-74
2022/06/09 05:46:19;;;;;;;1.92;1.02;;;15.50;99.90;;;;;;4999974;28;20103;-75
2022/06/09 05:48:45;;;;;;;1.88;0.90;;;15.50;99.90;;;;;;4996325;28;20084;-75
2022/06/09 05:51:16;;;;;;;1.77;0.80;;;15.60;99.90;;;;;;4998562;28;20058;-75
2022/06/09 05:53:46;;;;;;;2.22;1.13;;;15.70;99.90;;;;;;5005685;28;20026;-75
2022/06/09 05:56:11;;;;;;;4.43;1.20;;;15.80;99.90;;;;;;5005414;28;20551;-74
2022/06/09 05:58:40;;;;;;;4.63;1.02;;;15.90;99.90;;;;;;4991935;28;20122;-73
2022/06/09 06:01:08;;;;;;;1.17;0.75;;;16.00;99.90;;;;;;4998487;28;20022;-73
2022/06/09 06:03:38;;;;;;;2.72;1.00;;;16.20;99.90;;;;;;4999429;28;20031;-73
2022/06/09 06:08:48;;;;;;;3.83;1.00;;;16.40;99.90;;;;;;4996759;28;20045;-74
2022/06/09 06:11:17;;;;;;;2.92;0.90;;;16.50;99.90;;;;;;4992044;28;20030;-74
2022/06/09 06:13:44;;;;;;;5.80;1.30;;;16.60;99.90;;;;;;5001724;28;20065;-74
2022/06/09 06:16:13;;;;;;;4.15;1.08;;;16.70;99.90;;;;;;4993053;28;20073;-73
2022/06/09 06:18:39;;;;;;;3.72;0.75;;;16.80;99.90;;;;;;5001179;28;20039;-74
2022/06/09 06:21:05;;;;;;;1.92;1.00;;;16.90;99.90;;;;;;4996160;28;20395;-73
2022/06/09 06:23:31;;;;;;;1.98;0.88;;;17.00;99.90;;;;;;5003477;28;20212;-74
2022/06/09 06:25:57;;;;;;;3.08;1.05;;;17.00;99.90;;;;;;5008953;28;20028;-74
2022/06/09 06:28:24;;;;;;;5.90;1.00;;;16.90;99.90;;;;;;5001218;28;20030;-73
2022/06/09 06:30:50;;;;;;;5.43;1.50;;;16.90;99.90;;;;;;4998851;28;20040;-72
2022/06/09 06:33:16;;;;;;;6.68;1.13;;;16.90;99.90;;;;;;5003007;28;20031;-72
2022/06/09 06:35:42;;;;;;;4.25;0.93;;;16.90;99.90;;;;;;4997907;28;20048;-72
2022/06/09 06:38:15;;;;;;;5.78;1.23;;;17.00;99.90;;;;;;5004700;28;20026;-72
2022/06/09 06:40:50;;;;;;;1.30;0.80;;;17.10;99.90;;;;;;5005098;28;20046;-72
2022/06/09 06:43:22;;;;;;;3.15;1.05;;;17.10;99.90;;;;;;5003253;28;20026;-72
2022/06/09 06:45:48;;;;;;;4.72;0.98;;;17.00;99.90;;;;;;4999309;28;20018;-71
2022/06/09 06:48:16;;;;;;;3.20;0.90;;;17.00;99.90;;;;;;5001667;28;20041;-72
2022/06/09 06:50:45;;;;;;;2.25;0.90;;;16.90;99.90;;;;;;5002309;28;20057;-71
2022/06/09 06:53:12;;;;;;;2.78;1.30;;;16.80;99.90;;;;;;5003605;28;20053;-71
2022/06/09 06:55:38;;;;;;;3.45;1.08;;;16.80;99.90;;;;;;4981801;28;20042;-71
2022/06/09 06:58:04;;;;;;;2.38;1.30;;;16.90;99.90;;;;;;5001970;28;20029;-71
2022/06/09 07:00:34;;;;;;;5.03;1.15;;;17.20;99.90;;;;;;5002383;28;20089;-72
2022/06/09 07:03:03;;;;;;;2.72;1.20;;;17.30;99.90;;;;;;5005413;28;20014;-72
2022/06/09 07:05:29;;;;;;;2.55;0.90;;;17.40;99.90;;;;;;4995087;28;20109;-72
2022/06/09 07:07:56;;;;;;;1.63;0.90;;;17.50;99.90;;;;;;5002617;28;20502;-72
2022/06/09 07:10:23;;;;;;;3.67;0.95;;;17.60;99.90;;;;;;4998594;28;20033;-72
2022/06/09 07:12:51;;;;;;;2.67;0.90;;;17.70;99.90;;;;;;4995054;28;20042;-72
2022/06/09 07:15:26;;;;;;;7.10;1.10;;;17.70;99.90;;;;;;4997104;28;20555;-72
2022/06/09 07:18:01;;;;;;;3.03;1.08;;;17.80;99.90;;;;;;4997607;28;20022;-72
2022/06/09 07:20:33;;;;;;;7.38;1.05;;;17.90;99.90;;;;;;4998683;28;20036;-72
2022/06/09 07:22:58;;;;;;;2.25;0.90;;;17.90;99.90;;;;;;5003146;28;20095;-72
2022/06/09 07:25:30;;;;;;;2.38;1.08;;;18.00;99.90;;;;;;4959203;28;20041;-75
2022/06/09 07:27:56;;;;;;;4.78;1.00;;;17.90;99.90;;;;;;5001299;28;20505;-72
2022/06/09 07:30:25;;;;;;;5.32;1.38;;;17.90;99.90;;;;;;5000178;28;20022;-72
2022/06/09 07:32:59;;;;;;;5.45;1.73;;;17.80;99.90;;;;;;5000393;28;20045;-72
2022/06/09 07:35:28;;;;;;;1.38;0.70;;;17.90;99.90;;;;;;5005120;28;20668;-72
2022/06/09 07:38:00;;;;;;;4.93;1.17;;;18.00;99.90;;;;;;4998571;28;20124;-72
2022/06/09 07:40:36;;;;;;;4.88;1.20;;;18.10;99.90;;;;;;5002001;28;20025;-72
2022/06/09 07:43:04;;;;;;;7.95;1.15;;;18.10;99.90;;;;;;5001266;28;20046;-72
2022/06/09 07:45:33;;;;;;;4.28;1.40;;;18.20;99.90;;;;;;5016314;28;20033;-72
2022/06/09 07:47:59;;;;;;;2.90;0.98;;;18.10;99.90;;;;;;5000415;28;20030;-72
2022/06/09 07:50:24;;;;;;;3.88;1.02;;;18.00;99.90;;;;;;5001977;28;20034;-75
2022/06/09 07:52:50;;;;;;;2.78;0.70;;;17.90;99.90;;;;;;5003660;28;20018;-73
2022/06/09 07:55:22;;;;;;;2.40;0.88;;;17.90;99.90;;;;;;4999545;28;20034;-72
2022/06/09 07:57:48;;;;;;;3.80;0.95;;;17.90;99.90;;;;;;4996053;28;20021;-72
2022/06/09 08:00:15;;;;;;;2.97;0.75;;;17.80;99.90;;;;;;5000024;28;20406;-73
2022/06/09 08:02:42;;;;;;;4.07;1.05;;;17.70;99.90;;;;;;4999643;28;20023;-73
2022/06/09 08:05:09;;;;;;;2.92;0.88;;;17.50;99.90;;;;;;5000525;28;20073;-73
2022/06/09 08:07:35;;;;;;;5.18;1.20;;;17.50;99.90;;;;;;5008911;28;20152;-73
2022/06/09 08:10:03;;;;;;;8.15;1.25;;;17.50;99.90;;;;;;4991281;28;20118;-72
2022/06/09 08:12:28;;;;;;;4.15;1.30;;;17.50;99.90;;;;;;4999867;28;20386;-72
2022/06/09 08:14:54;;;;;;;5.10;1.33;;;17.70;99.90;;;;;;5004165;28;20030;-72
2022/06/09 08:17:20;;;;;;;6.03;0.90;;;17.80;99.90;;;;;;4999076;28;20034;-73
2022/06/09 08:19:47;;;;;;;4.68;1.20;;;17.90;99.90;;;;;;5019678;28;20612;-74
2022/06/09 08:22:14;;;;;;;4.53;1.00;;;18.00;99.90;;;;;;5004650;28;20072;-71
2022/06/09 08:24:39;;;;;;;3.28;1.08;;;18.10;99.90;;;;;;5001000;28;20108;-72
2022/06/09 08:27:05;;;;;;;3.40;1.00;;;18.20;99.90;;;;;;5003421;28;20459;-72
2022/06/09 08:29:31;;;;;;;6.38;1.52;;;18.40;99.90;;;;;;5009000;28;20530;-72
2022/06/09 08:31:57;;;;;;;5.32;1.27;;;18.40;99.90;;;;;;4999079;28;20055;-74
2022/06/09 08:34:23;;;;;;;3.50;1.10;;;18.40;99.90;;;;;;5005618;28;20129;-73
2022/06/09 08:36:48;;;;;;;5.50;0.82;;;18.50;99.90;;;;;;5004737;28;20105;-74
2022/06/09 08:39:14;;;;;;;3.92;1.13;;;18.60;99.90;;;;;;5000158;28;20160;-73
2022/06/09 08:41:55;;;;;;;4.25;1.15;;;18.50;99.90;;;;;;5002199;28;20105;-72
2022/06/09 08:44:29;;;;;;;7.53;1.13;;;18.50;99.90;;;;;;4999276;28;20030;-73
2022/06/09 08:47:24;;;;;;;5.40;1.27;;;18.40;99.90;;;;;;4999809;28;20072;-72
2022/06/09 08:50:05;;;;;;;3.42;1.15;;;18.40;99.90;;;;;;4999942;28;20161;-74
2022/06/09 08:52:49;;;;;;;3.60;0.90;;;18.20;99.60;;;;;;4999416;28;20037;-73
2022/06/09 08:55:35;;;;;;;2.53;1.00;;;18.20;99.90;;;;;;4995191;28;20032;-73
2022/06/09 08:58:11;;;;;;;5.88;1.10;;;18.40;99.80;;;;;;4994769;28;20041;-72
2022/06/09 09:00:41;;;;;;;5.03;1.25;;;18.40;99.10;;;;;;4996458;28;20068;-72
2022/06/09 09:03:27;;;;;;;3.97;1.00;;;18.30;98.80;;;;;;5001727;28;20033;-70
2022/06/09 09:06:06;;;;;;;2.03;0.73;;;18.20;99.30;;;;;;4996472;28;20022;-73
2022/06/09 09:08:35;;;;;;;3.17;0.80;;;18.20;99.60;;;;;;5001442;28;20359;-72
2022/06/09 09:11:18;;;;;;;4.68;0.68;;;18.10;98.90;;;;;;4993965;28;20018;-74
2022/06/09 09:13:59;;;;;;;6.03;1.42;;;18.00;98.70;;;;;;4994804;28;20017;-73
2022/06/09 09:16:33;;;;;;;2.85;0.80;;;18.10;98.70;;;;;;5002634;28;20038;-73
2022/06/09 09:19:17;;;;;;;;;;;18.40;98.70;;;;;;5001589;28;20022;-73
2022/06/09 09:21:43;;;;;;;;;;;18.50;98.60;;;;;;5000234;28;19959;-75
2022/06/09 09:24:39;;;;;;;6.32;1.23;;;18.80;98.30;;;;;;5006154;28;19914;-73
2022/06/09 09:27:30;;;;;;;4.05;1.05;;;19.00;97.70;;;;;;4999940;28;20030;-74
2022/06/09 09:30:10;;;;;;;5.25;0.90;;;19.10;96.80;;;;;;5000868;28;20176;-73
2022/06/09 09:32:43;;;;;;;1.90;0.80;;;19.10;96.10;;;;;;4998536;28;20034;-74
2022/06/09 09:35:41;;;;;;;1.67;0.63;;;19.10;95.90;;;;;;5004107;28;20055;-73
2022/06/09 09:38:09;;;;;;;2.70;0.82;;;19.10;94.60;;;;;;5010643;28;20077;-73
2022/06/09 09:40:39;;;;;;;5.95;1.02;;;19.10;94.60;;;;;;5010982;28;20029;-73
2022/06/09 09:43:14;;;;;;;3.20;0.60;;;19.20;94.30;;;;;;4994231;28;20030;-73
2022/06/09 09:45:47;;;;;;;3.63;0.93;;;19.50;93.70;;;;;;5001244;28;20030;-73
2022/06/09 09:48:16;;;;;;;4.95;0.80;;;19.70;93.80;;;;;;5001566;28;20089;-73
2022/06/09 09:50:52;;;;;;;1.90;0.73;;;19.80;93.20;;;;;;5005557;28;20026;-74
2022/06/09 09:53:18;;;;;;;3.40;0.82;;;19.80;92.90;;;;;;5000161;28;20033;-75
2022/06/09 09:55:55;;;;;;;2.67;0.75;;;19.80;93.10;;;;;;5005056;28;20100;-75
2022/06/09 09:58:53;;;;;;;2.00;0.90;;;19.70;92.40;;;;;;4998654;28;20486;-75
2022/06/09 10:01:25;;;;;;;3.33;0.75;;;19.60;92.40;;;;;;4999757;28;20028;-74
2022/06/09 10:09:32;;;;;;;3.50;0.75;;;19.70;92.00;;;;;;5004487;28;20053;-73
2022/06/09 10:12:06;;;;;;;1.75;0.95;;;19.80;91.30;;;;;;5003854;28;20026;-73
2022/06/09 10:15:14;;;;;;;4.45;0.77;;;19.80;90.10;;;;;;5003619;28;20036;-74
2022/06/09 10:18:25;;;;;;;2.55;0.70;;;19.90;90.30;;;;;;5001672;28;20578;-74
2022/06/09 10:21:02;;;;;;;1.90;0.75;;;20.10;90.70;;;;;;4973156;28;20109;-74
2022/06/09 10:23:37;;;;;;;2.78;0.63;;;20.30;90.40;;;;;;4999258;28;20029;-74
2022/06/09 10:26:17;;;;;;;1.17;0.68;;;20.40;89.30;;;;;;4997984;28;20022;-74
2022/06/09 10:29:04;;;;;;;1.50;0.60;;;20.50;89.00;;;;;;5003910;28;20701;-72
2022/06/09 10:31:48;;;;;;;3.08;0.65;;;20.70;88.90;;;;;;5001729;28;20024;-74
2022/06/09 10:34:19;;;;;;;1.92;0.50;;;20.90;82.50;;;;;;5004240;28;20023;-74
2022/06/09 10:36:59;;;;;;;4.03;0.70;;;21.00;79.50;;;;;;5005074;28;20034;-73
2022/06/09 10:39:54;;;;;;;4.30;0.60;;;21.10;79.50;;;;;;5000398;28;20026;-74
2022/06/09 10:42:31;;;;;;;4.13;0.85;;;21.20;81.50;;;;;;5002307;28;20018;-73
2022/06/09 10:45:09;;;;;;;4.72;1.00;;;21.00;81.50;;;;;;5001974;28;20595;-73
2022/06/09 10:56:59;;;;;;;2.22;0.63;;;20.00;80.60;;;;;;5001160;28;20096;-73
2022/06/09 10:59:41;;;;;;;1.20;0.60;;;20.10;80.60;;;;;;4997134;28;20566;-73
2022/06/09 11:02:21;;;;;;;6.07;1.30;;;20.30;80.80;;;;;;4998080;28;20057;-73
2022/06/09 11:04:49;;;;;;;2.92;0.80;;;20.30;80.00;;;;;;5002885;28;20080;-73
2022/06/09 11:07:15;;;;;;;1.02;0.52;;;20.40;80.30;;;;;;5002216;28;20062;-72
2022/06/09 11:09:58;;;;;;;0.75;0.52;;;20.50;80.10;;;;;;5005999;28;20026;-73
2022/06/09 11:12:42;;;;;;;2.75;0.70;;;20.50;79.00;;;;;;5003056;28;20491;-73
2022/06/09 11:15:08;;;;;;;1.30;0.50;;;20.50;77.60;;;;;;4997150;28;20031;-72
2022/06/09 11:18:05;;;;;;;2.42;0.63;;;20.50;78.70;;;;;;5002377;28;20038;-73
2022/06/09 11:20:54;;;;;;;2.25;0.70;;;20.60;78.10;;;;;;4995911;28;20062;-73
2022/06/09 11:23:38;;;;;;;3.00;0.68;;;20.70;78.50;;;;;;4998248;28;20125;-76
2022/06/09 11:26:16;;;;;;;2.10;0.50;;;20.90;78.10;;;;;;4999819;28;20030;-75
2022/06/09 11:29:10;;;;;;;3.83;0.77;;;21.00;77.10;;;;;;4995997;28;20038;-77
2022/06/09 11:32:13;;;;;;;2.47;0.83;;;21.10;76.40;;;;;;4996106;28;20498;-76
2022/06/09 11:34:46;;;;;;;3.22;0.73;;;21.10;80.30;;;;;;5000289;28;20109;-76
2022/06/09 11:37:33;;;;;;;3.28;0.90;;;21.10;80.20;;;;;;4991997;28;20584;-76
2022/06/09 11:40:11;;;;;;;2.78;0.80;;;21.00;80.20;;;;;;4999004;28;20042;-75
2022/06/09 11:42:46;;;;;;;4.30;1.00;;;21.10;80.00;;;;;;5001267;28;20061;-76
2022/06/09 11:45:43;;;;;;;6.47;1.25;;;21.20;79.90;;;;;;4995814;28;20026;-75
2022/06/09 11:48:16;;;;;;;3.65;0.90;;;21.30;78.70;;;;;;4999720;28;20033;-75
2022/06/09 11:50:44;;;;;;;0.90;0.50;;;21.30;78.90;;;;;;4997195;28;20041;-75
2022/06/09 11:53:20;;;;;;;1.52;0.50;;;21.30;79.20;;;;;;4995152;28;20022;-75
2022/06/09 11:55:58;;;;;;;3.22;0.70;;;21.30;79.30;;;;;;5002136;28;20028;-75
2022/06/09 11:58:36;;;;;;;4.30;0.90;;;21.10;79.50;;;;;;4996685;28;20101;-74
2022/06/09 12:01:19;;;;;;;2.75;0.73;;;20.90;80.70;;;;;;4998290;28;20130;-75
2022/06/09 12:04:06;;;;;;;3.00;0.80;;;20.90;88.90;;;;;;5001677;28;20037;-75
2022/06/09 12:07:11;;;;;;;2.50;0.70;;;20.80;88.50;;;;;;5005924;28;20022;-75
2022/06/09 12:09:55;;;;;;;;;;;20.70;86.90;;;;;;4989920;28;20145;-76
2022/06/09 12:12:27;;;;;;;2.13;0.68;;;20.70;87.00;;;;;;5000096;28;20302;-75
2022/06/09 12:15:20;;;;;;;2.60;0.65;;;20.70;85.80;;;;;;5001038;28;20032;-76
2022/06/09 12:17:57;;;;;;;4.22;0.98;;;20.70;85.60;;;;;;5001891;28;20038;-76
2022/06/09 12:20:47;;;;;;;2.80;0.80;;;20.50;84.40;;;;;;5000839;28;20101;-76
2022/06/09 12:23:39;;;;;;;3.22;0.88;;;20.50;84.50;;;;;;5004443;28;20323;-75
2022/06/09 12:26:11;;;;;;;2.67;0.82;;;20.60;84.30;;;;;;5000988;28;20548;-75
2022/06/09 12:28:57;;;;;;;3.42;1.00;;;20.70;84.10;;;;;;5009334;28;20026;-75
2022/06/09 12:31:27;;;;;;;2.25;1.20;;;20.70;83.80;;;;;;4993600;28;20026;-75
2022/06/09 12:34:02;;;;;;;1.52;0.70;;;20.70;83.80;;;;;;5005066;28;20794;-75
2022/06/09 12:36:40;;;;;;;4.25;0.88;;;20.80;84.00;;;;;;4994942;28;20539;-75
2022/06/09 12:39:26;;;;;;;1.20;0.60;;;20.70;83.80;;;;;;5000014;28;20075;-76
2022/06/09 12:42:17;;;;;;;2.05;0.85;;;20.70;83.80;;;;;;4998473;28;20506;-76
2022/06/09 12:44:49;;;;;;;4.18;1.00;;;20.80;84.10;;;;;;5007083;28;20049;-75
2022/06/09 12:47:24;;;;;;;1.65;0.75;;;20.80;84.20;;;;;;4999817;28;20017;-76
2022/06/09 12:49:56;;;;;;;3.10;1.00;;;20.80;84.10;;;;;;5022241;28;20103;-76
2022/06/09 12:52:28;;;;;;;3.55;0.85;;;20.80;84.70;;;;;;4999908;28;20355;-76
2022/06/09 12:55:08;;;;;;;2.10;0.65;;;20.70;84.90;;;;;;4998523;28;20045;-75
2022/06/09 12:57:42;;;;;;;4.93;1.10;;;20.80;85.60;;;;;;5008149;28;20053;-76
2022/06/09 13:00:13;;;;;;;2.28;1.10;;;20.80;85.10;;;;;;4997403;28;20026;-74
2022/06/09 13:02:40;;;;;;;3.22;0.90;;;21.00;84.80;;;;;;5007401;28;20027;-74
2022/06/09 13:05:12;;;;;;;2.72;1.15;;;21.00;84.50;;;;;;5002490;28;20026;-75
2022/06/09 13:07:59;;;;;;;2.17;0.88;;;21.10;84.00;;;;;;5000718;28;20056;-74
2022/06/09 13:10:28;;;;;;;4.53;1.23;;;21.10;83.80;;;;;;5014368;28;20042;-75
2022/06/09 13:13:13;;;;;;;1.58;0.73;;;20.80;87.10;;;;;;4997160;28;20125;-74
2022/06/09 13:15:47;;;;;;;4.25;0.70;;;20.40;89.60;;;;;;4998196;28;20033;-75
2022/06/09 13:18:21;;;;;;;4.32;0.90;;;20.00;90.90;;;;;;4999128;28;20150;-75
2022/06/09 13:21:17;;;;;;;4.25;1.25;;;19.80;92.80;;;;;;4996977;28;20072;-75
2022/06/09 13:23:49;;;;;;;4.07;1.38;;;19.60;94.50;;;;;;4997350;28;20539;-75
2022/06/09 13:26:26;;;;;;;2.20;1.05;;;19.50;95.30;;;;;;4996170;28;20045;-75
2022/06/09 13:28:57;;;;;;;5.38;1.27;;;19.30;95.50;;;;;;4998085;28;20029;-75
2022/06/09 13:31:31;;;;;;;4.57;1.08;;;19.20;96.30;;;;;;4988574;28;20027;-75
2022/06/09 13:34:09;;;;;;;3.95;1.10;;;19.30;96.80;;;;;;5000781;28;20475;-75
2022/06/09 13:36:41;;;;;;;4.30;1.42;;;19.30;97.80;;;;;;5007176;28;20046;-75
2022/06/09 13:39:36;;;;;;;3.05;1.30;;;19.40;97.90;;;;;;4997861;28;20037;-75
2022/06/09 13:42:07;;;;;;;4.93;1.10;;;19.30;97.30;;;;;;5001360;28;20410;-75
2022/06/09 13:44:50;;;;;;;3.45;0.90;;;19.40;97.60;;;;;;4994961;28;20026;-75